Time;durP1;ratioP1;P1;durP2;ratioP2;P2;SDS_P1;SDS_P2;PMS_P1;PMS_P2;Temp;Humidity;BMP_temperature;BMP_pressure;BME280_temperature;BME280_humidity;BME280_pressure;Samples;Min_cycle;Max_cycle;Signal;HPM_P1;HPM_P2
2022/10/12 00:01:06;;;;;;;9.95;4.20;;;;;;;9.59;62.13;102438.06;6215959;23;20032;-64
2022/10/12 00:03:33;;;;;;;8.55;3.90;;;;;;;9.54;62.41;102432.59;6216185;23;20445;-63
2022/10/12 00:06:05;;;;;;;5.75;3.65;;;;;;;9.55;62.31;102438.81;6216009;23;20454;-63
2022/10/12 00:08:31;;;;;;;7.57;3.70;;;;;;;9.60;62.33;102439.88;6215703;23;20016;-64
2022/10/12 00:10:56;;;;;;;8.05;3.60;;;;;;;9.68;61.90;102435.81;6215574;23;20066;-63
2022/10/12 00:13:22;;;;;;;6.10;3.90;;;;;;;9.72;61.92;102437.72;6215866;23;20004;-63
2022/10/12 00:15:47;;;;;;;6.57;4.25;;;;;;;9.77;61.82;102440.56;6214302;23;20150;-63
2022/10/12 00:18:12;;;;;;;9.88;4.50;;;;;;;9.81;62.08;102437.19;6215750;23;20423;-63
2022/10/12 00:20:38;;;;;;;10.63;4.22;;;;;;;9.85;62.14;102433.84;6215502;23;20044;-63
2022/10/12 00:23:03;;;;;;;9.20;4.20;;;;;;;9.86;61.53;102430.34;6215768;23;20327;-63
2022/10/12 00:25:29;;;;;;;11.80;4.22;;;;;;;9.89;61.50;102424.25;6215683;23;20091;-63
2022/10/12 00:27:54;;;;;;;7.63;4.10;;;;;;;9.87;61.44;102425.97;6215593;23;20064;-64
2022/10/12 00:30:20;;;;;;;8.57;4.05;;;;;;;9.77;61.31;102427.34;6215672;23;20382;-64
2022/10/12 00:32:45;;;;;;;8.50;4.25;;;;;;;9.65;61.89;102434.78;6215834;23;20036;-64
2022/10/12 00:35:10;;;;;;;7.05;4.00;;;;;;;9.58;62.04;102430.97;6215954;23;20036;-63
2022/10/12 00:37:36;;;;;;;9.13;3.88;;;;;;;9.50;62.33;102427.13;6189075;23;20032;-63
2022/10/12 00:40:01;;;;;;;8.88;3.92;;;;;;;9.43;62.45;102433.03;6215662;23;20012;-64
2022/10/12 00:42:26;;;;;;;7.95;4.18;;;;;;;9.32;62.33;102429.91;6215787;23;20024;-63
2022/10/12 00:44:52;;;;;;;8.27;4.13;;;;;;;9.34;62.48;102435.28;6215543;23;20016;-63
2022/10/12 00:47:32;;;;;;;9.05;4.00;;;;;;;9.39;62.65;102436.38;6215730;23;20012;-63
2022/10/12 00:50:22;;;;;;;10.90;4.18;;;;;;;9.34;62.68;102430.00;6215953;23;20005;-63
2022/10/12 00:53:21;;;;;;;7.93;4.03;;;;;;;9.28;62.50;102434.16;6215748;23;20005;-63
2022/10/12 00:55:52;;;;;;;11.70;4.60;;;;;;;9.25;62.85;102430.53;6216421;23;20009;-63
2022/10/12 00:58:18;;;;;;;9.07;4.47;;;;;;;9.25;63.34;102433.16;6217924;23;20055;-62
2022/10/12 01:00:44;;;;;;;9.27;4.18;;;;;;;9.18;63.84;102433.72;6217642;23;20036;-62
2022/10/12 01:03:14;;;;;;;8.80;4.40;;;;;;;9.13;63.81;102436.19;6217658;23;20032;-63
2022/10/12 01:05:39;;;;;;;8.70;4.32;;;;;;;9.08;63.73;102442.06;6217472;23;20004;-63
2022/10/12 01:08:05;;;;;;;9.60;4.30;;;;;;;8.99;64.13;102440.88;6217603;23;20008;-63
2022/10/12 01:10:31;;;;;;;11.38;4.22;;;;;;;9.05;64.07;102439.34;6217260;23;20055;-64
2022/10/12 01:12:56;;;;;;;9.32;4.18;;;;;;;9.12;63.92;102436.09;6217494;23;20378;-64
2022/10/12 01:15:27;;;;;;;8.38;4.28;;;;;;;9.16;64.20;102431.00;6217759;23;20005;-64
2022/10/12 01:18:02;;;;;;;7.38;4.30;;;;;;;9.25;63.84;102428.78;6217697;23;20013;-64
2022/10/12 01:20:55;;;;;;;11.68;4.30;;;;;;;9.26;63.51;102422.66;6217223;23;20518;-63
2022/10/12 01:23:38;;;;;;;8.65;3.90;;;;;;;9.27;63.81;102415.66;6217613;23;20080;-64
2022/10/12 01:26:38;;;;;;;7.25;3.80;;;;;;;9.22;63.28;102410.19;6217804;23;20020;-63
2022/10/12 01:29:32;;;;;;;6.70;3.70;;;;;;;9.24;64.47;102403.22;6217646;23;20364;-62
2022/10/12 01:32:09;;;;;;;6.63;3.58;;;;;;;9.18;64.53;102400.34;6217483;23;20032;-63
2022/10/12 01:34:46;;;;;;;7.00;3.55;;;;;;;9.11;64.34;102397.38;6217365;23;20009;-63
2022/10/12 01:37:22;;;;;;;7.50;4.00;;;;;;;9.16;64.49;102398.47;6217351;23;20084;-64
2022/10/12 01:39:58;;;;;;;8.02;3.70;;;;;;;9.23;64.52;102400.53;6217010;23;20502;-63
2022/10/12 01:42:30;;;;;;;10.40;4.40;;;;;;;9.26;64.47;102395.41;6217358;23;20084;-65
2022/10/12 01:45:11;;;;;;;7.03;3.80;;;;;;;9.23;64.38;102397.91;6217431;23;20057;-64
2022/10/12 01:47:38;;;;;;;8.27;3.95;;;;;;;9.09;64.90;102396.44;6217624;23;20009;-64
2022/10/12 01:50:09;;;;;;;7.28;4.20;;;;;;;9.01;65.36;102396.09;6217094;23;20339;-64
2022/10/12 01:52:57;;;;;;;11.23;4.20;;;;;;;9.06;64.50;102391.91;6217202;23;20104;-65
2022/10/12 01:55:28;;;;;;;8.45;4.28;;;;;;;9.09;65.27;102389.41;6217499;23;20093;-63
2022/10/12 01:58:12;;;;;;;9.23;4.00;;;;;;;9.12;65.01;102386.91;6217341;23;20007;-64
2022/10/12 02:01:01;;;;;;;8.93;4.18;;;;;;;9.21;65.00;102375.84;6217141;23;20019;-63
2022/10/12 02:03:33;;;;;;;7.18;3.90;;;;;;;9.21;64.11;102381.13;6217465;23;20078;-63
2022/10/12 02:06:07;;;;;;;9.95;4.20;;;;;;;9.16;64.70;102385.28;6217122;23;20087;-62
2022/10/12 02:08:40;;;;;;;9.05;4.22;;;;;;;9.03;64.95;102383.88;6216871;23;20343;-62
2022/10/12 02:11:08;;;;;;;8.90;4.35;;;;;;;8.96;65.01;102380.09;6216886;23;20084;-63
2022/10/12 02:13:40;;;;;;;7.70;4.30;;;;;;;8.78;66.19;102380.22;6217216;23;20051;-63
2022/10/12 02:16:11;;;;;;;8.38;4.10;;;;;;;8.69;65.96;102377.22;6217108;23;20009;-62
2022/10/12 02:18:43;;;;;;;10.35;4.28;;;;;;;8.74;66.34;102374.75;6216921;23;20411;-62
2022/10/12 02:21:11;;;;;;;8.47;4.17;;;;;;;8.75;66.32;102377.44;6216765;23;20012;-63
2022/10/12 02:23:38;;;;;;;8.10;4.07;;;;;;;8.76;65.37;102375.72;6216829;23;20004;-62
2022/10/12 02:26:05;;;;;;;7.38;4.05;;;;;;;8.77;65.87;102372.22;6216948;23;20058;-62
2022/10/12 02:28:34;;;;;;;10.23;4.35;;;;;;;8.75;65.57;102366.91;6216684;23;20024;-64
2022/10/12 02:31:11;;;;;;;11.32;4.47;;;;;;;8.81;65.56;102355.72;6216813;23;20007;-62
2022/10/12 02:33:45;;;;;;;9.68;4.78;;;;;;;8.90;65.74;102363.13;6216751;23;20016;-63
2022/10/12 02:36:28;;;;;;;9.88;4.10;;;;;;;8.93;65.24;102364.16;6216757;23;20423;-63
2022/10/12 02:39:05;;;;;;;10.32;4.55;;;;;;;8.93;65.57;102366.78;6216784;23;20008;-63
2022/10/12 02:41:38;;;;;;;7.43;4.43;;;;;;;8.91;65.38;102364.94;6190064;23;20076;-62
2022/10/12 02:44:09;;;;;;;9.85;4.18;;;;;;;8.81;65.06;102368.91;6190183;23;20071;-63
2022/10/12 02:46:36;;;;;;;7.45;4.45;;;;;;;8.70;65.38;102355.28;6216822;23;20419;-64
2022/10/12 02:49:03;;;;;;;8.80;4.03;;;;;;;8.65;66.09;102364.72;6216596;23;20008;-65
2022/10/12 02:51:30;;;;;;;8.82;4.40;;;;;;;8.64;65.96;102368.19;6216780;23;20415;-63
2022/10/12 02:53:56;;;;;;;10.38;4.22;;;;;;;8.57;66.05;102362.59;6216568;23;20009;-63
2022/10/12 02:56:22;;;;;;;7.13;4.40;;;;;;;8.58;66.01;102364.41;6216612;23;20054;-64
2022/10/12 02:58:48;;;;;;;8.05;4.18;;;;;;;8.55;65.68;102358.97;6216592;23;20016;-62
2022/10/12 03:01:17;;;;;;;6.43;4.10;;;;;;;8.56;65.34;102359.03;6190060;23;20009;-63
2022/10/12 03:03:44;;;;;;;8.65;3.92;;;;;;;8.51;65.24;102352.69;6216517;23;20004;-63
2022/10/12 03:06:09;;;;;;;6.07;4.25;;;;;;;8.48;65.43;102350.81;6216382;23;20431;-62
2022/10/12 03:08:35;;;;;;;8.63;4.35;;;;;;;8.43;65.58;102354.97;6216391;23;20000;-64
2022/10/12 03:11:05;;;;;;;9.32;4.53;;;;;;;8.28;67.05;102349.91;6216426;23;20387;-62
2022/10/12 03:13:30;;;;;;;10.82;4.47;;;;;;;8.21;66.43;102350.47;6216761;23;20062;-63
2022/10/12 03:16:10;;;;;;;7.38;4.20;;;;;;;8.22;66.14;102344.38;6216390;23;20009;-63
2022/10/12 03:18:36;;;;;;;10.25;4.53;;;;;;;8.18;65.95;102339.81;6216111;23;20056;-63
2022/10/12 03:21:01;;;;;;;12.13;4.65;;;;;;;8.15;66.28;102341.41;6216189;23;20020;-63
2022/10/12 03:23:27;;;;;;;8.27;4.38;;;;;;;8.12;67.16;102336.88;6189809;23;20008;-62
2022/10/12 03:25:52;;;;;;;8.75;4.32;;;;;;;8.13;65.70;102338.69;6216279;23;20012;-62
2022/10/12 03:28:18;;;;;;;7.80;4.18;;;;;;;8.08;66.15;102339.31;6216245;23;20012;-63
2022/10/12 03:30:44;;;;;;;8.07;4.30;;;;;;;8.04;66.12;102341.81;6216172;23;20009;-64
2022/10/12 03:33:10;;;;;;;9.43;4.80;;;;;;;8.08;66.16;102337.59;6216101;23;20331;-64
2022/10/12 03:35:36;;;;;;;8.63;4.45;;;;;;;8.11;65.57;102339.47;6216270;23;20004;-61
2022/10/12 03:38:01;;;;;;;11.50;4.68;;;;;;;8.11;66.36;102345.63;6216255;23;20013;-63
2022/10/12 03:40:26;;;;;;;7.45;4.38;;;;;;;8.10;66.94;102342.94;6216102;23;20394;-63
2022/10/12 03:42:52;;;;;;;7.25;4.32;;;;;;;8.17;65.95;102345.00;6214332;23;20005;-63
2022/10/12 03:45:17;;;;;;;8.60;4.43;;;;;;;8.10;65.35;102333.31;6216163;23;20083;-64
2022/10/12 03:47:43;;;;;;;7.05;4.50;;;;;;;8.01;65.53;102344.31;6216163;23;20005;-62
2022/10/12 03:50:08;;;;;;;9.80;4.40;;;;;;;8.02;65.66;102342.59;6216275;23;20009;-64
2022/10/12 03:52:34;;;;;;;7.15;3.92;;;;;;;8.01;65.86;102349.59;6216191;23;20016;-63
2022/10/12 03:54:59;;;;;;;7.72;4.20;;;;;;;8.01;65.89;102333.78;6216000;23;20327;-63
2022/10/12 03:57:24;;;;;;;9.13;3.83;;;;;;;7.99;65.68;102335.44;6189499;23;20308;-64
2022/10/12 03:59:50;;;;;;;7.38;3.90;;;;;;;7.99;66.38;102332.81;6216017;23;20127;-62
2022/10/12 04:02:15;;;;;;;8.57;4.10;;;;;;;7.95;66.48;102330.88;6215998;23;20005;-64
2022/10/12 04:04:40;;;;;;;8.60;4.28;;;;;;;7.94;66.72;102334.34;6215988;23;20036;-64
2022/10/12 04:07:06;;;;;;;8.40;4.32;;;;;;;7.98;66.24;102325.75;6216015;23;20008;-64
2022/10/12 04:09:31;;;;;;;8.18;4.28;;;;;;;7.96;66.53;102324.75;6215747;23;20009;-63
2022/10/12 04:11:57;;;;;;;7.93;4.20;;;;;;;7.96;66.16;102331.75;6215554;23;20051;-61
2022/10/12 04:14:22;;;;;;;7.32;4.18;;;;;;;7.94;65.93;102330.81;6215812;23;20005;-63
2022/10/12 04:16:47;;;;;;;9.07;4.53;;;;;;;7.88;66.25;102328.81;6215828;23;20042;-63
2022/10/12 04:19:13;;;;;;;8.63;4.75;;;;;;;7.88;66.33;102326.19;6189009;23;20040;-62
2022/10/12 04:21:40;;;;;;;7.40;4.80;;;;;;;7.82;66.07;102328.50;6215703;23;20013;-62
2022/10/12 04:24:05;;;;;;;11.48;4.22;;;;;;;7.73;66.61;102322.84;6214245;23;20067;-63
2022/10/12 04:26:31;;;;;;;7.40;4.30;;;;;;;7.65;67.04;102317.22;6215953;23;20013;-63
2022/10/12 04:28:56;;;;;;;7.95;4.43;;;;;;;7.61;66.39;102331.06;6215616;23;20335;-63
2022/10/12 04:31:22;;;;;;;12.77;4.70;;;;;;;7.54;66.67;102328.97;6215117;23;20427;-63
2022/10/12 04:33:47;;;;;;;8.48;4.70;;;;;;;7.46;66.83;102331.25;6215730;23;20012;-63
2022/10/12 04:36:12;;;;;;;9.93;4.63;;;;;;;7.39;67.08;102331.78;6215967;23;20004;-63
2022/10/12 04:38:38;;;;;;;7.90;4.47;;;;;;;7.36;67.25;102329.00;6215779;23;20009;-64
2022/10/12 04:41:03;;;;;;;11.68;4.22;;;;;;;7.38;67.32;102318.56;6215423;23;20012;-64
2022/10/12 04:43:29;;;;;;;9.48;4.38;;;;;;;7.41;66.86;102319.63;6215626;23;20013;-63
2022/10/12 04:45:58;;;;;;;11.23;4.40;;;;;;;7.44;67.01;102329.34;6215643;23;20059;-63
2022/10/12 04:48:25;;;;;;;8.85;4.47;;;;;;;7.41;67.63;102331.84;6215913;23;20005;-63
2022/10/12 04:50:50;;;;;;;8.32;4.65;;;;;;;7.42;68.12;102331.03;6188897;23;20032;-63
2022/10/12 04:53:16;;;;;;;8.25;4.82;;;;;;;7.42;67.46;102339.81;6215543;23;20092;-64
2022/10/12 04:55:41;;;;;;;7.45;4.32;;;;;;;7.42;66.52;102341.56;6215905;23;20036;-63
2022/10/12 04:58:06;;;;;;;10.43;4.63;;;;;;;7.38;68.24;102337.88;6215598;23;20008;-62
2022/10/12 05:00:32;;;;;;;10.80;4.60;;;;;;;7.40;68.29;102337.94;6215843;23;20066;-63
2022/10/12 05:02:57;;;;;;;8.23;4.53;;;;;;;7.41;67.91;102331.84;6215514;23;20019;-64
2022/10/12 05:05:23;;;;;;;12.23;5.00;;;;;;;7.44;68.02;102338.16;6215870;23;20084;-63
2022/10/12 05:07:48;;;;;;;9.98;4.43;;;;;;;7.51;67.97;102328.84;6215537;23;20031;-63
2022/10/12 05:10:14;;;;;;;13.80;5.10;;;;;;;7.58;68.35;102325.66;6215558;23;20012;-64
2022/10/12 05:12:39;;;;;;;12.70;4.93;;;;;;;7.64;66.88;102339.09;6215696;23;20067;-63
2022/10/12 05:15:05;;;;;;;11.95;5.10;;;;;;;7.59;67.02;102331.81;6215445;23;20451;-63
2022/10/12 05:17:30;;;;;;;8.57;4.60;;;;;;;7.49;67.24;102334.03;6215462;23;20036;-63
2022/10/12 05:19:56;;;;;;;9.68;4.50;;;;;;;7.41;66.52;102323.94;6215125;23;20036;-63
2022/10/12 05:22:21;;;;;;;8.80;4.75;;;;;;;7.38;66.48;102316.84;6215545;23;20013;-62
2022/10/12 05:24:47;;;;;;;8.00;4.70;;;;;;;7.36;67.52;102317.56;6215665;23;20012;-63
2022/10/12 05:27:12;;;;;;;10.32;4.55;;;;;;;7.40;67.27;102317.78;6215402;23;20386;-63
2022/10/12 05:29:37;;;;;;;8.52;4.90;;;;;;;7.46;66.86;102315.47;6215385;23;20052;-62
2022/10/12 05:32:03;;;;;;;10.70;4.28;;;;;;;7.47;66.54;102312.00;6215829;23;20374;-62
2022/10/12 05:34:28;;;;;;;9.15;4.65;;;;;;;7.37;66.75;102315.03;6215492;23;20043;-64
2022/10/12 05:36:54;;;;;;;12.13;4.90;;;;;;;7.38;67.31;102316.84;6215348;23;20496;-62
2022/10/12 05:39:19;;;;;;;22.13;11.07;;;;;;;7.39;66.80;102307.22;6215739;23;20013;-63
2022/10/12 05:41:45;;;;;;;7.68;4.30;;;;;;;7.32;66.54;102313.00;6215716;23;20343;-62
2022/10/12 05:44:10;;;;;;;6.95;3.95;;;;;;;7.26;66.77;102313.63;6217545;23;20009;-62
2022/10/12 05:46:35;;;;;;;8.75;4.20;;;;;;;7.23;66.97;102311.72;6217225;23;20008;-63
2022/10/12 05:49:01;;;;;;;7.85;4.10;;;;;;;7.13;67.41;102296.34;6217077;23;20082;-62
2022/10/12 05:51:29;;;;;;;6.80;4.05;;;;;;;7.20;67.35;102315.97;6217171;23;20014;-63
2022/10/12 05:53:54;;;;;;;8.27;3.75;;;;;;;7.20;66.61;102315.97;6216793;23;20005;-63
2022/10/12 05:56:20;;;;;;;5.72;4.13;;;;;;;7.22;67.12;102306.41;6217030;23;20012;-61
2022/10/12 05:58:45;;;;;;;15.55;8.27;;;;;;;7.28;67.22;102314.59;6217207;23;20063;-62
2022/10/12 06:01:12;;;;;;;8.57;4.90;;;;;;;7.26;66.48;102314.50;6217373;23;20012;-63
2022/10/12 06:03:38;;;;;;;6.68;3.80;;;;;;;7.26;66.40;102313.63;6190595;23;20435;-63
2022/10/12 06:06:05;;;;;;;6.15;4.10;;;;;;;7.27;66.89;102312.78;6217006;23;20133;-63
2022/10/12 06:08:31;;;;;;;6.43;3.97;;;;;;;7.23;67.27;102319.63;6217369;23;20039;-62
2022/10/12 06:10:56;;;;;;;5.57;3.80;;;;;;;7.22;66.30;102316.94;6216966;23;20008;-62
2022/10/12 06:13:22;;;;;;;6.60;4.10;;;;;;;7.21;66.99;102317.75;6217010;23;20039;-64
2022/10/12 06:15:48;;;;;;;7.05;4.30;;;;;;;7.20;67.33;102313.34;6217127;23;20427;-64
2022/10/12 06:18:14;;;;;;;8.25;4.32;;;;;;;7.24;66.75;102310.94;6216893;23;20039;-62
2022/10/12 06:20:40;;;;;;;8.32;3.95;;;;;;;7.22;66.97;102320.44;6216720;23;20020;-63
2022/10/12 06:23:05;;;;;;;8.07;4.10;;;;;;;7.25;66.95;102317.09;6217099;23;20431;-63
2022/10/12 06:25:31;;;;;;;5.45;3.83;;;;;;;7.22;67.64;102309.94;6217149;23;20330;-63
2022/10/12 06:27:56;;;;;;;5.80;3.75;;;;;;;7.25;68.11;102312.72;6216860;23;20482;-64
2022/10/12 06:30:22;;;;;;;5.75;3.90;;;;;;;7.23;69.00;102309.09;6216760;23;20088;-63
2022/10/12 06:32:47;;;;;;;8.43;4.43;;;;;;;7.28;69.72;102315.50;6190098;23;20347;-61
2022/10/12 06:35:12;;;;;;;10.35;5.15;;;;;;;7.42;70.38;102304.75;6216751;23;20088;-62
2022/10/12 06:37:38;;;;;;;8.55;5.00;;;;;;;7.50;68.98;102314.78;6216713;23;20316;-63
2022/10/12 06:40:04;;;;;;;7.85;4.53;;;;;;;7.56;68.94;102308.91;6216968;23;20020;-62
2022/10/12 06:42:30;;;;;;;8.13;5.15;;;;;;;7.57;68.95;102307.16;6216497;23;20009;-63
2022/10/12 06:44:55;;;;;;;11.48;4.57;;;;;;;7.55;69.22;102308.84;6216699;23;20039;-64
2022/10/12 06:47:21;;;;;;;10.27;4.90;;;;;;;7.56;69.48;102310.63;6217019;23;20005;-63
2022/10/12 06:49:46;;;;;;;11.77;5.00;;;;;;;7.69;70.51;102313.00;6216521;23;20008;-62
2022/10/12 06:52:11;;;;;;;13.52;5.35;;;;;;;7.82;70.25;102314.47;6216613;23;20011;-63
2022/10/12 06:54:37;;;;;;;9.88;4.85;;;;;;;7.84;69.86;102312.81;6216102;23;20162;-63
2022/10/12 06:57:04;;;;;;;8.23;5.20;;;;;;;7.93;70.48;102319.38;6216569;23;20090;-63
2022/10/12 06:59:30;;;;;;;12.90;5.30;;;;;;;7.99;70.98;102321.38;6216752;23;20013;-64
2022/10/12 07:01:55;;;;;;;11.63;5.63;;;;;;;8.08;70.90;102313.00;6216721;23;20449;-63
2022/10/12 07:04:21;;;;;;;13.35;5.50;;;;;;;8.18;71.02;102309.91;6214917;23;20423;-63
2022/10/12 07:06:46;;;;;;;16.10;6.50;;;;;;;8.27;71.46;102308.63;6216369;23;20080;-62
2022/10/12 07:09:11;;;;;;;10.15;5.63;;;;;;;8.36;70.26;102310.75;6216319;23;20419;-63
2022/10/12 07:11:37;;;;;;;16.65;6.28;;;;;;;8.24;70.99;102320.75;6216502;23;20004;-62
2022/10/12 07:14:02;;;;;;;9.57;5.68;;;;;;;8.18;72.03;102312.56;6216382;23;20009;-61
2022/10/12 07:16:27;;;;;;;12.93;5.88;;;;;;;8.10;72.87;102321.88;6189845;23;20009;-62
2022/10/12 07:18:53;;;;;;;14.25;6.68;;;;;;;8.11;73.39;102319.31;6216342;23;20063;-62
2022/10/12 07:21:18;;;;;;;13.68;6.25;;;;;;;8.23;72.47;102313.69;6216109;23;20027;-60
2022/10/12 07:23:43;;;;;;;11.68;6.32;;;;;;;8.23;72.47;102305.78;6216296;23;20102;-62
2022/10/12 07:26:09;;;;;;;16.42;6.57;;;;;;;8.15;72.19;102305.44;6216297;23;20009;-61
2022/10/12 07:28:35;;;;;;;18.80;7.70;;;;;;;8.26;73.77;102304.19;6216227;23;20450;-61
2022/10/12 07:31:06;;;;;;;12.05;6.57;;;;;;;8.37;73.09;102301.16;6216241;23;20001;-61
2022/10/12 07:33:33;;;;;;;13.27;8.07;;;;;;;8.40;74.40;102301.28;6216274;23;20304;-62
2022/10/12 07:36:00;;;;;;;14.88;7.22;;;;;;;8.34;73.68;102291.31;6216540;23;20079;-62
2022/10/12 07:38:25;;;;;;;14.95;7.20;;;;;;;8.40;73.24;102296.00;6216196;23;20012;-63
2022/10/12 07:40:51;;;;;;;16.00;6.97;;;;;;;8.49;73.46;102299.03;6215909;23;20016;-63
2022/10/12 07:43:16;;;;;;;14.15;7.50;;;;;;;8.66;73.98;102295.38;6214899;23;20008;-62
2022/10/12 07:45:42;;;;;;;15.05;6.57;;;;;;;8.81;72.62;102299.47;6216399;23;20019;-62
2022/10/12 07:48:07;;;;;;;16.85;7.57;;;;;;;8.85;72.51;102304.03;6216380;23;20171;-62
2022/10/12 07:50:33;;;;;;;20.05;7.30;;;;;;;8.93;72.12;102308.78;6215962;23;20446;-62
2022/10/12 07:52:58;;;;;;;16.17;7.68;;;;;;;9.05;71.85;102307.50;6216061;23;20009;-63
2022/10/12 07:55:24;;;;;;;15.05;7.85;;;;;;;9.18;72.24;102308.03;6216256;23;20478;-62
2022/10/12 07:57:49;;;;;;;18.05;7.32;;;;;;;9.37;71.36;102308.75;6216288;23;20013;-63
2022/10/12 08:00:15;;;;;;;17.98;7.97;;;;;;;9.49;71.44;102314.50;6216297;23;20386;-62
2022/10/12 08:02:40;;;;;;;19.00;8.32;;;;;;;9.77;71.83;102309.47;6215931;23;20363;-63
2022/10/12 08:05:06;;;;;;;22.05;8.60;;;;;;;9.98;71.50;102305.81;6216199;23;20009;-64
2022/10/12 08:07:31;;;;;;;15.60;7.93;;;;;;;10.28;70.70;102308.69;6214677;23;20043;-63
2022/10/12 08:09:57;;;;;;;17.60;8.63;;;;;;;10.67;69.62;102308.28;6215015;23;20054;-62
2022/10/12 08:12:22;;;;;;;17.00;9.38;;;;;;;10.82;69.81;102313.16;6215444;23;20012;-63
2022/10/12 08:14:48;;;;;;;23.13;9.82;;;;;;;10.99;69.62;102315.50;6215500;23;20016;-64
2022/10/12 08:17:13;;;;;;;20.35;9.38;;;;;;;11.14;69.67;102316.88;6215661;23;20004;-62
2022/10/12 08:19:38;;;;;;;19.75;10.35;;;;;;;11.33;67.63;102315.69;6213780;23;20442;-63
2022/10/12 08:22:04;;;;;;;22.83;10.60;;;;;;;11.54;68.28;102311.06;6215939;23;20015;-62
2022/10/12 08:24:29;;;;;;;20.75;10.13;;;;;;;11.85;66.66;102315.53;6215773;23;20039;-62
2022/10/12 08:26:54;;;;;;;19.02;9.55;;;;;;;12.30;66.61;102304.44;6215746;23;20316;-61
2022/10/12 08:29:20;;;;;;;17.00;10.07;;;;;;;12.61;65.39;102298.19;6214337;23;20017;-63
2022/10/12 08:31:48;;;;;;;20.33;9.93;;;;;;;12.81;64.97;102308.44;6215121;23;20009;-62
2022/10/12 08:34:13;;;;;;;22.45;9.85;;;;;;;13.05;64.51;102309.00;6215456;23;20446;-63
2022/10/12 08:36:39;;;;;;;20.23;10.02;;;;;;;13.28;63.73;102296.31;6215784;23;20004;-62
2022/10/12 08:39:05;;;;;;;22.40;10.60;;;;;;;13.45;61.57;102304.69;6215623;23;20008;-63
2022/10/12 08:41:52;;;;;;;20.65;10.20;;;;;;;13.77;61.62;102292.06;6188725;23;20489;-63
2022/10/12 08:44:45;;;;;;;18.75;10.15;;;;;;;14.00;60.86;102284.56;6215515;23;20004;-62
2022/10/12 08:47:10;;;;;;;;;;;;;;;14.25;61.35;102289.47;6216085;23;20012;-63
2022/10/12 08:49:39;;;;;;;18.23;9.37;;;;;;;14.68;60.37;102287.63;6215559;23;20234;-63
2022/10/12 08:52:12;;;;;;;21.27;10.10;;;;;;;14.85;58.54;102287.00;6215801;23;20236;-63
2022/10/12 08:54:42;;;;;;;22.33;10.10;;;;;;;15.05;58.26;102297.97;6215472;23;20008;-63
2022/10/12 08:57:18;;;;;;;20.52;10.35;;;;;;;15.08;57.33;102293.59;6215657;23;20005;-62
2022/10/12 08:59:46;;;;;;;18.42;10.07;;;;;;;15.21;57.30;102290.25;6215901;23;20001;-62
2022/10/12 09:02:30;;;;;;;23.15;10.48;;;;;;;15.07;57.63;102296.22;6215470;23;20441;-63
2022/10/12 09:05:00;;;;;;;20.95;9.98;;;;;;;15.30;57.44;102288.59;6215937;23;20013;-62
2022/10/12 09:07:30;;;;;;;19.88;9.63;;;;;;;15.57;56.54;102296.97;6215945;23;20008;-63
2022/10/12 09:10:13;;;;;;;21.20;9.75;;;;;;;15.57;56.06;102302.28;6215445;23;20001;-63
2022/10/12 09:12:38;;;;;;;25.83;10.75;;;;;;;15.31;56.55;102299.25;6215367;23;20004;-63
2022/10/12 09:15:18;;;;;;;19.70;10.18;;;;;;;15.56;57.63;102304.94;6215556;23;20072;-62
2022/10/12 09:17:51;;;;;;;26.13;10.38;;;;;;;15.77;55.98;102307.91;6216599;23;20359;-62
2022/10/12 09:20:21;;;;;;;22.33;11.52;;;;;;;15.58;55.05;102304.06;6217318;23;20438;-63
2022/10/12 09:22:54;;;;;;;22.75;11.25;;;;;;;15.52;55.84;102312.88;6217337;23;20054;-64
2022/10/12 09:25:24;;;;;;;21.15;11.02;;;;;;;15.63;56.28;102310.38;6217822;23;20004;-61
2022/10/12 09:27:50;;;;;;;25.73;11.20;;;;;;;15.77;56.15;102316.81;6217520;23;20031;-64
2022/10/12 09:30:18;;;;;;;23.30;12.00;;;;;;;15.78;55.44;102315.03;6217179;23;20004;-63
2022/10/12 09:33:22;;;;;;;24.83;11.82;;;;;;;15.93;55.14;102308.97;6217476;23;20435;-63
2022/10/12 09:35:49;;;;;;;22.27;11.65;;;;;;;16.22;54.84;102304.88;6177814;23;20012;-62
2022/10/12 09:38:15;;;;;;;25.33;11.32;;;;;;;16.54;53.97;102301.66;6190778;23;20335;-62
2022/10/12 09:40:41;;;;;;;24.70;11.95;;;;;;;16.80;54.54;102293.91;6217424;23;20008;-62
2022/10/12 09:43:07;;;;;;;23.95;9.98;;;;;;;17.06;53.03;102293.22;6217121;23;20055;-62
2022/10/12 09:45:34;;;;;;;18.77;10.18;;;;;;;17.28;52.21;102296.03;6217185;23;20481;-63
2022/10/12 09:48:11;;;;;;;24.02;10.43;;;;;;;17.36;53.13;102298.75;6217519;23;20031;-63
2022/10/12 09:51:02;;;;;;;21.10;10.23;;;;;;;17.46;51.55;102294.34;6216962;23;20316;-62
2022/10/12 09:53:40;;;;;;;23.20;10.45;;;;;;;17.35;51.81;102294.31;6217300;23;20005;-62
2022/10/12 09:56:23;;;;;;;22.02;10.73;;;;;;;17.58;52.36;102297.09;6217237;23;20039;-62
2022/10/12 09:59:07;;;;;;;21.17;10.57;;;;;;;17.96;51.28;102293.72;6217107;23;20000;-63
2022/10/12 10:01:34;;;;;;;23.88;10.18;;;;;;;18.31;49.60;102293.81;6217159;23;20008;-63
2022/10/12 10:04:16;;;;;;;21.35;10.27;;;;;;;18.20;48.29;102293.81;6217068;23;20004;-63
2022/10/12 10:06:45;;;;;;;21.55;10.10;;;;;;;18.31;47.46;102287.59;6217435;23;20144;-62
2022/10/12 10:09:31;;;;;;;24.25;11.05;;;;;;;18.69;48.96;102276.91;6216926;23;20492;-62
2022/10/12 10:12:10;;;;;;;21.13;10.18;;;;;;;19.19;47.54;102268.88;6216818;23;20004;-64
2022/10/12 10:14:35;;;;;;;22.52;10.45;;;;;;;19.41;45.45;102264.34;6216989;23;20359;-64
2022/10/12 10:17:01;;;;;;;22.73;10.15;;;;;;;19.69;45.84;102259.78;6217308;23;20012;-63
2022/10/12 10:19:27;;;;;;;18.92;10.07;;;;;;;19.96;44.48;102260.56;6216690;23;20415;-63
2022/10/12 10:21:54;;;;;;;23.90;10.13;;;;;;;19.94;44.28;102255.19;6217036;23;20016;-63
2022/10/12 10:24:29;;;;;;;20.73;10.30;;;;;;;19.96;44.82;102258.75;6216816;23;20493;-64
2022/10/12 10:26:59;;;;;;;19.98;10.23;;;;;;;19.52;44.19;102269.66;6216888;23;20028;-64
2022/10/12 10:29:33;;;;;;;21.92;10.02;;;;;;;19.32;46.35;102266.16;6216425;23;20005;-64
2022/10/12 10:32:25;;;;;;;20.00;9.52;;;;;;;19.27;45.79;102267.06;6216811;23;20031;-64
2022/10/12 10:35:20;;;;;;;23.35;10.73;;;;;;;19.43;46.98;102270.56;6216964;23;20403;-64
2022/10/12 10:37:50;;;;;;;20.67;10.48;;;;;;;19.48;45.21;102265.19;6203892;23;20016;-64
2022/10/12 10:40:30;;;;;;;17.80;9.43;;;;;;;20.08;44.83;102264.94;6217090;23;20000;-63
2022/10/12 10:43:04;;;;;;;23.42;10.48;;;;;;;20.32;44.55;102259.41;6216683;23;20004;-64
2022/10/12 10:45:36;;;;;;;18.10;9.60;;;;;;;20.73;42.48;102266.31;6217024;23;20005;-64
2022/10/12 10:48:10;;;;;;;18.92;9.52;;;;;;;20.88;43.35;102260.78;6216837;23;20031;-63
2022/10/12 10:50:48;;;;;;;18.08;8.38;;;;;;;21.03;40.68;102257.06;6216639;23;20001;-65
2022/10/12 10:53:21;;;;;;;20.25;8.82;;;;;;;21.31;40.00;102252.25;6216951;23;20380;-64
2022/10/12 10:56:26;;;;;;;20.83;9.60;;;;;;;21.37;41.98;102254.03;6216347;23;20000;-63
2022/10/12 10:59:04;;;;;;;19.55;9.07;;;;;;;21.35;40.82;102255.84;6156737;23;20013;-63
2022/10/12 11:01:38;;;;;;;17.88;9.13;;;;;;;21.31;40.81;102248.69;6216865;23;20011;-63
2022/10/12 11:04:09;;;;;;;17.30;8.55;;;;;;;21.47;40.49;102244.94;6216645;23;20005;-62
2022/10/12 11:06:43;;;;;;;17.92;8.77;;;;;;;21.78;40.22;102231.09;6190361;23;20012;-63
2022/10/12 11:09:32;;;;;;;19.10;8.50;;;;;;;21.89;40.13;102231.84;6216311;23;20455;-64
2022/10/12 11:12:06;;;;;;;15.02;8.35;;;;;;;22.00;38.76;102228.06;6216340;23;20323;-63
2022/10/12 11:14:43;;;;;;;17.30;8.10;;;;;;;21.67;40.48;102216.00;6216770;23;20016;-64
2022/10/12 11:17:23;;;;;;;17.58;8.50;;;;;;;21.46;40.31;102210.91;6216420;23;20439;-64
2022/10/12 11:19:58;;;;;;;15.20;7.38;;;;;;;21.58;38.70;102218.78;6189626;23;20020;-64
2022/10/12 11:22:35;;;;;;;15.05;7.55;;;;;;;21.51;39.77;102222.50;6216726;23;20331;-65
2022/10/12 11:25:19;;;;;;;16.33;7.18;;;;;;;21.64;40.35;102209.78;6216424;23;20419;-65
2022/10/12 11:27:45;;;;;;;14.77;7.20;;;;;;;21.61;37.90;102205.31;6216646;23;20039;-65
2022/10/12 11:30:16;;;;;;;13.40;6.53;;;;;;;21.72;38.12;102197.09;6216177;23;20009;-65
2022/10/12 11:33:00;;;;;;;13.73;6.22;;;;;;;21.65;37.67;102187.34;6216549;23;20092;-65
2022/10/12 11:35:29;;;;;;;13.70;6.50;;;;;;;21.63;37.31;102179.28;6216234;23;20334;-63
2022/10/12 11:38:01;;;;;;;16.05;6.15;;;;;;;21.94;37.78;102173.47;6216480;23;20001;-67